Abbott Park, Illinois
Current Conditions -  °F | °C
As of 10:55 PM on Thursday 30 Oct 2014 (Local Time) from KUGN Reporting Station
Overcast Overcast  
Wind Chill: 45°   Ceiling: 6500
Heat Index: 45°   Visibility: 10mi
Dew Point: 35°   Wind: 3mph
Humidity: 68%   Direction: NA
Pressure: 30.03"   Gusts: NA
Location:  42.3271°N, 87.865°W
Report Text: KUGN 310355Z AUTO VRB03KT 10SM OVC065 07/02 A3003 RMK AO2 SLP172 T00720017
Loading
Personal Weather Stations






























Interactive Weather Map New forecast layout! Learn more

10-Day Weather Forecast

Advertisements
Track Severe Weather on mobile